createdAt,value
2016-06-03T00:00:58.656Z,999.02
2016-06-03T00:01:58.690Z,999.04
2016-06-03T00:02:58.709Z,999.04
2016-06-03T00:03:58.742Z,999.06
2016-06-03T00:04:58.759Z,999.09
2016-06-03T00:05:58.794Z,999.07
2016-06-03T00:06:58.828Z,999.05
2016-06-03T00:07:58.847Z,999.04
2016-06-03T00:08:58.880Z,999.03
2016-06-03T00:09:58.914Z,999
2016-06-03T00:10:58.932Z,999.04
2016-06-03T00:11:58.967Z,999.02
2016-06-03T00:12:58.985Z,999.02
2016-06-03T00:13:59.019Z,999
2016-06-03T00:14:59.053Z,999
2016-06-03T00:15:59.071Z,999.01
2016-06-03T00:16:59.105Z,999.01
2016-06-03T00:17:59.124Z,999
2016-06-03T00:18:59.158Z,999.02
2016-06-03T00:19:59.192Z,998.98
2016-06-03T00:20:59.209Z,999.03
2016-06-03T00:21:59.244Z,998.99
2016-06-03T00:22:59.262Z,998.99
2016-06-03T00:23:59.296Z,998.98
2016-06-03T00:24:59.329Z,999.01
2016-06-03T00:25:59.348Z,998.96
2016-06-03T00:26:59.382Z,998.94
2016-06-03T00:27:59.400Z,998.94
2016-06-03T00:28:59.435Z,998.95
2016-06-03T00:29:59.468Z,998.95
2016-06-03T00:31:00.361Z,998.95
2016-06-03T00:31:59.521Z,998.96
2016-06-03T00:32:59.539Z,998.99
2016-06-03T00:33:59.573Z,998.98
2016-06-03T00:34:59.606Z,998.97
2016-06-03T00:35:59.625Z,998.97
2016-06-03T00:36:59.659Z,998.95
2016-06-03T00:37:59.677Z,998.96
2016-06-03T00:38:59.711Z,998.94
2016-06-03T00:40:00.011Z,998.95
2016-06-03T00:40:59.764Z,998.93
2016-06-03T00:41:59.798Z,998.91
2016-06-03T00:42:59.816Z,998.91
2016-06-03T00:43:59.849Z,998.94
2016-06-03T00:44:59.867Z,998.94
2016-06-03T00:45:59.902Z,998.94
2016-06-03T00:46:59.935Z,998.97
2016-06-03T00:47:59.970Z,998.96
2016-06-03T00:48:59.988Z,998.97
2016-06-03T00:50:00.022Z,998.95
2016-06-03T00:51:00.040Z,998.98
2016-06-03T00:52:00.074Z,999.01
2016-06-03T00:53:00.093Z,998.98
2016-06-03T00:54:00.126Z,998.99
2016-06-03T00:55:00.176Z,998.99
2016-06-03T00:56:00.179Z,999.02
2016-06-03T00:57:00.213Z,998.97
2016-06-03T00:58:00.232Z,998.99
2016-06-03T00:59:00.265Z,998.99
2016-06-03T01:00:00.282Z,998.99
2016-06-03T01:01:00.317Z,998.98
2016-06-03T01:02:00.351Z,998.96
2016-06-03T01:03:00.370Z,998.99
2016-06-03T01:04:00.403Z,998.97
2016-06-03T01:05:00.421Z,999
2016-06-03T01:06:00.456Z,998.99
2016-06-03T01:07:00.490Z,998.96
2016-06-03T01:08:00.509Z,998.99
2016-06-03T01:09:00.542Z,998.98
2016-06-03T01:10:00.576Z,999.01
2016-06-03T01:11:00.594Z,998.96
2016-06-03T01:12:00.612Z,999.01
2016-06-03T01:13:00.646Z,998.98
2016-06-03T01:14:00.664Z,998.97
2016-06-03T01:15:00.698Z,998.99
2016-06-03T01:16:00.733Z,998.98
2016-06-03T01:17:00.750Z,998.99
2016-06-03T01:18:00.785Z,998.97
2016-06-03T01:19:00.803Z,998.99
2016-06-03T01:20:00.836Z,999.02
2016-06-03T01:21:00.871Z,999.03
2016-06-03T01:22:00.889Z,999.01
2016-06-03T01:23:00.924Z,999
2016-06-03T01:24:00.941Z,999.05
2016-06-03T01:25:00.975Z,999.03
2016-06-03T01:26:00.994Z,999.06
2016-06-03T01:27:01.027Z,999.02
2016-06-03T01:28:01.062Z,999.05
2016-06-03T01:29:01.079Z,999.02
2016-06-03T01:30:01.113Z,999.03
2016-06-03T01:31:01.132Z,999.03
2016-06-03T01:32:01.166Z,999.04
2016-06-03T01:33:01.200Z,998.99
2016-06-03T01:34:01.218Z,999
2016-06-03T01:35:01.252Z,998.94
2016-06-03T01:36:01.286Z,998.96
2016-06-03T01:37:01.304Z,998.93
2016-06-03T01:38:01.323Z,998.9
2016-06-03T01:39:01.356Z,998.93
2016-06-03T01:40:01.376Z,998.92
2016-06-03T01:41:01.409Z,998.9
2016-06-03T01:42:01.442Z,998.91
2016-06-03T01:43:01.461Z,998.89
2016-06-03T01:44:01.495Z,998.89
2016-06-03T01:45:01.514Z,998.89
2016-06-03T01:46:01.547Z,998.86
2016-06-03T01:47:01.581Z,998.82
2016-06-03T01:48:01.600Z,998.86
2016-06-03T01:49:01.633Z,998.84
2016-06-03T01:50:01.652Z,998.82
2016-06-03T01:51:01.686Z,998.83
2016-06-03T01:52:01.705Z,998.8
2016-06-03T01:53:01.739Z,998.85
2016-06-03T01:54:01.756Z,998.84
2016-06-03T01:55:01.790Z,998.82
2016-06-03T01:56:01.840Z,998.84
2016-06-03T01:57:01.843Z,998.86
2016-06-03T01:58:01.876Z,998.83
2016-06-03T01:59:01.895Z,998.83
2016-06-03T02:00:01.929Z,998.83
2016-06-03T02:01:01.963Z,998.84
2016-06-03T02:02:01.981Z,998.82
2016-06-03T02:03:02.000Z,998.8
2016-06-03T02:04:02.049Z,998.8
2016-06-03T02:05:02.067Z,998.81
2016-06-03T02:06:02.085Z,998.75
2016-06-03T02:07:02.120Z,998.81
2016-06-03T02:08:02.137Z,998.81
2016-06-03T02:09:02.173Z,998.78
2016-06-03T02:10:02.425Z,998.79
2016-06-03T02:11:02.224Z,998.75
2016-06-03T02:12:02.258Z,998.73
2016-06-03T02:13:02.292Z,998.73
2016-06-03T02:14:02.295Z,998.68
2016-06-03T02:15:02.329Z,998.68
2016-06-03T02:16:02.362Z,998.66
2016-06-03T02:17:02.381Z,998.68
2016-06-03T02:18:02.414Z,998.74
2016-06-03T02:19:02.449Z,998.72
2016-06-03T02:20:02.467Z,998.75
2016-06-03T02:21:02.500Z,998.74
2016-06-03T02:22:02.535Z,998.75
2016-06-03T02:23:02.553Z,998.74
2016-06-03T02:24:02.571Z,998.76
2016-06-03T02:25:02.605Z,998.73
2016-06-03T02:26:02.624Z,998.73
2016-06-03T02:27:02.657Z,998.71
2016-06-03T02:28:02.676Z,998.67
2016-06-03T02:29:02.710Z,998.65
2016-06-03T02:30:02.729Z,998.63
2016-06-03T02:31:02.778Z,998.64
2016-06-03T02:32:02.780Z,998.6
2016-06-03T02:33:02.815Z,998.6
2016-06-03T02:34:02.849Z,998.6
2016-06-03T02:35:02.868Z,998.59
2016-06-03T02:36:02.901Z,998.61
2016-06-03T02:37:02.919Z,998.59
2016-06-03T02:38:02.953Z,998.6
2016-06-03T02:39:02.971Z,998.58
2016-06-03T02:40:03.006Z,998.55
2016-06-03T02:41:03.039Z,998.53
2016-06-03T02:42:03.057Z,998.52
2016-06-03T02:43:03.092Z,998.48
2016-06-03T02:44:03.109Z,998.5
2016-06-03T02:45:03.144Z,998.48
2016-06-03T02:46:03.162Z,998.49
2016-06-03T02:47:03.196Z,998.48
2016-06-03T02:48:03.214Z,998.5
2016-06-03T02:49:03.247Z,998.49
2016-06-03T02:50:03.266Z,998.54
2016-06-03T02:51:03.316Z,998.56
2016-06-03T02:52:03.334Z,998.63
2016-06-03T02:53:03.352Z,998.71
2016-06-03T02:54:03.386Z,998.81
2016-06-03T02:55:03.686Z,998.81
2016-06-03T02:56:03.439Z,998.79
2016-06-03T02:57:03.457Z,998.78
2016-06-03T02:58:03.491Z,998.79
2016-06-03T02:59:03.510Z,998.72
2016-06-03T03:00:03.544Z,998.73
2016-06-03T03:01:03.577Z,998.75
2016-06-03T03:02:03.596Z,998.74
2016-06-03T03:03:03.613Z,998.82
2016-06-03T03:04:03.648Z,998.85
2016-06-03T03:05:03.682Z,998.8
2016-06-03T03:06:03.700Z,998.79
2016-06-03T03:07:03.735Z,998.78
2016-06-03T03:08:03.752Z,998.8
2016-06-03T03:09:03.786Z,998.78
2016-06-03T03:10:03.820Z,998.78
2016-06-03T03:11:03.839Z,998.79
2016-06-03T03:12:03.857Z,998.79
2016-06-03T03:13:03.891Z,998.78
2016-06-03T03:14:03.925Z,998.75
2016-06-03T03:15:03.943Z,998.75
2016-06-03T03:16:03.977Z,998.71
2016-06-03T03:17:03.995Z,998.73
2016-06-03T03:18:04.029Z,998.7
2016-06-03T03:19:04.047Z,998.69
2016-06-03T03:20:04.081Z,998.67
2016-06-03T03:21:04.099Z,998.69
2016-06-03T03:22:04.134Z,998.69
2016-06-03T03:23:04.153Z,998.67
2016-06-03T03:24:04.186Z,998.69
2016-06-03T03:25:04.252Z,998.67
2016-06-03T03:26:04.239Z,998.69
2016-06-03T03:27:04.257Z,998.7
2016-06-03T03:28:04.290Z,998.7
2016-06-03T03:29:04.324Z,998.71
2016-06-03T03:30:04.343Z,998.72
2016-06-03T03:31:04.376Z,998.73
2016-06-03T03:32:04.411Z,998.76
2016-06-03T03:33:04.429Z,998.78
2016-06-03T03:34:04.447Z,998.76
2016-06-03T03:35:04.481Z,998.79
2016-06-03T03:36:04.500Z,998.8
2016-06-03T03:37:04.533Z,998.86
2016-06-03T03:38:04.551Z,998.87
2016-06-03T03:39:04.585Z,998.92
2016-06-03T03:40:04.604Z,998.94
2016-06-03T03:41:04.638Z,998.93
2016-06-03T03:42:04.672Z,998.98
2016-06-03T03:43:04.690Z,998.94
2016-06-03T03:44:04.708Z,998.97
2016-06-03T03:45:04.743Z,998.92
2016-06-03T03:46:04.776Z,998.92
2016-06-03T03:47:04.795Z,998.89
2016-06-03T03:48:04.828Z,998.9
2016-06-03T03:49:04.909Z,998.87
2016-06-03T03:50:04.881Z,998.85
2016-06-03T03:51:04.900Z,998.86
2016-06-03T03:52:04.934Z,998.9
2016-06-03T03:53:04.952Z,998.89
2016-06-03T03:54:04.986Z,998.91
2016-06-03T03:55:05.003Z,998.95
2016-06-03T03:56:05.038Z,998.91
2016-06-03T03:57:05.055Z,998.93
2016-06-03T03:58:05.091Z,998.95
2016-06-03T03:59:05.108Z,998.95
2016-06-03T04:00:05.252Z,998.94
2016-06-03T04:01:05.177Z,998.93
2016-06-03T04:02:05.195Z,998.95
2016-06-03T04:03:05.213Z,998.93
2016-06-03T04:04:05.246Z,998.9
2016-06-03T04:05:05.280Z,998.84
2016-06-03T04:06:05.299Z,998.85
2016-06-03T04:07:05.332Z,998.86
2016-06-03T04:08:05.352Z,998.85
2016-06-03T04:09:05.385Z,998.88
2016-06-03T04:10:05.403Z,998.78
2016-06-03T04:11:05.437Z,998.79
2016-06-03T04:12:05.456Z,998.76
2016-06-03T04:13:05.490Z,998.69
2016-06-03T04:14:05.509Z,998.75
2016-06-03T04:15:05.542Z,998.75
2016-06-03T04:16:05.559Z,998.72
2016-06-03T04:17:05.594Z,998.74
2016-06-03T04:18:05.612Z,998.68
2016-06-03T04:19:05.647Z,998.71
2016-06-03T04:20:05.665Z,998.73
2016-06-03T04:21:05.698Z,998.74
2016-06-03T04:22:05.717Z,998.76
2016-06-03T04:23:05.751Z,998.75
2016-06-03T04:24:05.786Z,998.72
2016-06-03T04:25:05.803Z,998.76
2016-06-03T04:26:05.837Z,998.73
2016-06-03T04:27:05.855Z,998.7
2016-06-03T04:28:05.874Z,998.69
2016-06-03T04:29:05.908Z,998.67
2016-06-03T04:30:05.942Z,998.66
2016-06-03T04:31:05.960Z,998.66
2016-06-03T04:32:05.994Z,998.66
2016-06-03T04:33:06.013Z,998.67
2016-06-03T04:34:06.047Z,998.64
2016-06-03T04:35:06.096Z,998.65
2016-06-03T04:36:06.099Z,998.63
2016-06-03T04:37:06.116Z,998.63
2016-06-03T04:38:06.151Z,998.69
2016-06-03T04:39:06.168Z,998.61
2016-06-03T04:40:06.204Z,998.66
2016-06-03T04:41:06.237Z,998.67
2016-06-03T04:42:06.271Z,998.66
2016-06-03T04:43:06.273Z,998.67
2016-06-03T04:44:06.307Z,998.68
2016-06-03T04:45:06.326Z,998.73
2016-06-03T04:46:06.359Z,998.72
2016-06-03T04:47:06.379Z,998.77
2016-06-03T04:48:06.412Z,998.78
2016-06-03T04:49:06.445Z,998.79
2016-06-03T04:50:06.464Z,998.82
2016-06-03T04:51:06.483Z,998.82
2016-06-03T04:52:06.517Z,998.85
2016-06-03T04:53:06.550Z,998.86
2016-06-03T04:54:06.569Z,998.85
2016-06-03T04:55:06.634Z,998.84
2016-06-03T04:56:06.622Z,998.86
2016-06-03T04:57:06.655Z,998.88
2016-06-03T04:58:06.673Z,998.86
2016-06-03T04:59:06.708Z,998.88
2016-06-03T05:00:06.741Z,998.88
2016-06-03T05:01:06.759Z,998.88
2016-06-03T05:02:06.778Z,998.89
2016-06-03T05:03:06.811Z,998.87
2016-06-03T05:04:06.830Z,998.88
2016-06-03T05:05:06.863Z,998.9
2016-06-03T05:06:06.882Z,998.84
2016-06-03T05:07:06.916Z,998.86
2016-06-03T05:08:06.950Z,998.91
2016-06-03T05:09:06.968Z,998.88
2016-06-03T05:10:07.002Z,998.87
2016-06-03T05:11:07.021Z,998.83
2016-06-03T05:12:07.040Z,998.83
2016-06-03T05:13:07.073Z,998.82
2016-06-03T05:14:07.091Z,998.81
2016-06-03T05:15:07.141Z,998.81
2016-06-03T05:16:07.159Z,998.83
2016-06-03T05:17:07.177Z,998.83
2016-06-03T05:18:07.211Z,998.81
2016-06-03T05:19:07.245Z,998.84
2016-06-03T05:20:07.264Z,998.84
2016-06-03T05:21:07.281Z,998.82
2016-06-03T05:22:07.316Z,998.86
2016-06-03T05:23:07.334Z,998.85
2016-06-03T05:24:07.368Z,998.85
2016-06-03T05:25:07.386Z,998.89
2016-06-03T05:26:07.420Z,998.86
2016-06-03T05:27:07.439Z,998.86
2016-06-03T05:28:07.473Z,998.84
2016-06-03T05:29:07.491Z,998.86
2016-06-03T05:30:07.525Z,998.87
2016-06-03T05:31:07.544Z,998.84
2016-06-03T05:32:07.578Z,998.88
2016-06-03T05:33:07.595Z,998.87
2016-06-03T05:34:07.629Z,998.85
2016-06-03T05:35:07.663Z,998.87
2016-06-03T05:36:07.682Z,998.9
2016-06-03T05:37:07.715Z,998.92
2016-06-03T05:38:07.734Z,998.93
2016-06-03T05:39:07.768Z,998.95
2016-06-03T05:40:07.974Z,998.92
2016-06-03T05:41:07.820Z,998.91
2016-06-03T05:42:07.838Z,998.93
2016-06-03T05:43:07.873Z,998.94
2016-06-03T05:44:07.891Z,998.94
2016-06-03T05:45:07.924Z,998.94
2016-06-03T05:46:07.959Z,998.98
2016-06-03T05:47:07.977Z,998.98
2016-06-03T05:48:07.996Z,998.98
2016-06-03T05:49:08.029Z,998.97
2016-06-03T05:50:08.048Z,998.99
2016-06-03T05:51:08.082Z,999
2016-06-03T05:52:08.100Z,999.03
2016-06-03T05:53:08.133Z,999.04
2016-06-03T05:54:08.152Z,999.06
2016-06-03T05:55:08.186Z,999.06
2016-06-03T05:56:08.203Z,999.08
2016-06-03T05:57:08.238Z,999.11
2016-06-03T05:58:08.272Z,999.11
2016-06-03T05:59:08.291Z,999.13
2016-06-03T06:00:08.324Z,999.09
2016-06-03T06:01:08.342Z,999.08
2016-06-03T06:02:08.377Z,999.06
2016-06-03T06:03:08.395Z,999.08
2016-06-03T06:04:08.429Z,999.08
2016-06-03T06:05:08.447Z,999.12
2016-06-03T06:06:08.481Z,999.06
2016-06-03T06:07:08.516Z,999.08
2016-06-03T06:08:08.533Z,999.04
2016-06-03T06:09:08.568Z,999.06
2016-06-03T06:10:08.585Z,999.1
2016-06-03T06:11:08.620Z,999.07
2016-06-03T06:12:08.637Z,999.08
2016-06-03T06:13:08.671Z,999.1
2016-06-03T06:14:08.690Z,999.12
2016-06-03T06:15:08.724Z,999.13
2016-06-03T06:16:08.742Z,999.18
2016-06-03T06:17:08.776Z,999.16
2016-06-03T06:18:08.810Z,999.21
2016-06-03T06:19:08.829Z,999.15
2016-06-03T06:20:08.862Z,999.19
2016-06-03T06:21:08.881Z,999.2
2016-06-03T06:22:08.915Z,999.21
2016-06-03T06:23:08.934Z,999.21
2016-06-03T06:24:08.967Z,999.22
2016-06-03T06:25:08.986Z,999.22
2016-06-03T06:26:09.020Z,999.24
2016-06-03T06:27:09.054Z,999.22
2016-06-03T06:28:09.071Z,999.22
2016-06-03T06:29:09.105Z,999.18
2016-06-03T06:30:09.124Z,999.21
2016-06-03T06:31:09.158Z,999.2
2016-06-03T06:32:09.175Z,999.22
2016-06-03T06:33:09.210Z,999.22
2016-06-03T06:34:09.228Z,999.22
2016-06-03T06:35:09.263Z,999.21
2016-06-03T06:36:09.280Z,999.25
2016-06-03T06:37:09.314Z,999.23
2016-06-03T06:38:09.349Z,999.27
2016-06-03T06:39:09.366Z,999.3
2016-06-03T06:40:09.542Z,999.27
2016-06-03T06:41:09.435Z,999.26
2016-06-03T06:42:09.468Z,999.29
2016-06-03T06:43:09.487Z,999.24
2016-06-03T06:44:09.505Z,999.26
2016-06-03T06:45:09.539Z,999.23
2016-06-03T06:46:09.557Z,999.23
2016-06-03T06:47:09.615Z,999.24
2016-06-03T06:48:09.677Z,999.24
2016-06-03T06:49:09.722Z,999.27
2016-06-03T06:50:09.846Z,999.27
2016-06-03T06:51:09.829Z,999.24
2016-06-03T06:52:09.875Z,999.22
2016-06-03T06:53:09.903Z,999.23
2016-06-03T06:54:09.946Z,999.22
2016-06-03T06:55:09.976Z,999.18
2016-06-03T06:56:10.020Z,999.19
2016-06-03T06:57:10.057Z,999.2
2016-06-03T06:58:10.079Z,999.16
2016-06-03T06:59:10.116Z,999.19
2016-06-03T07:00:10.139Z,999.21
2016-06-03T07:01:10.176Z,999.22
2016-06-03T07:02:10.211Z,999.25
2016-06-03T07:03:10.231Z,999.24
2016-06-03T07:04:10.265Z,999.24
2016-06-03T07:05:10.285Z,999.23
2016-06-03T07:06:10.320Z,999.22
2016-06-03T07:07:10.339Z,999.22
2016-06-03T07:08:10.374Z,999.29
2016-06-03T07:09:10.409Z,999.23
2016-06-03T07:10:10.537Z,999.29
2016-06-03T07:11:10.494Z,999.26
2016-06-03T07:12:10.481Z,999.2
2016-06-03T07:13:10.515Z,999.22
2016-06-03T07:14:10.549Z,999.22
2016-06-03T07:15:10.567Z,999.2
2016-06-03T07:16:10.601Z,999.24
2016-06-03T07:17:10.619Z,999.24
2016-06-03T07:18:10.653Z,999.26
2016-06-03T07:19:10.687Z,999.31
2016-06-03T07:20:10.705Z,999.31
2016-06-03T07:21:10.739Z,999.35
2016-06-03T07:22:10.773Z,999.34
2016-06-03T07:23:10.792Z,999.33
2016-06-03T07:24:10.825Z,999.34
2016-06-03T07:25:10.845Z,999.34
2016-06-03T07:26:10.878Z,999.39
2016-06-03T07:27:10.912Z,999.36
2016-06-03T07:28:10.946Z,999.38
2016-06-03T07:29:10.964Z,999.41
2016-06-03T07:30:10.999Z,999.41
2016-06-03T07:31:11.017Z,999.4
2016-06-03T07:32:11.050Z,999.4
2016-06-03T07:33:11.085Z,999.4
2016-06-03T07:34:11.102Z,999.4
2016-06-03T07:35:11.137Z,999.45
2016-06-03T07:36:11.155Z,999.43
2016-06-03T07:37:11.189Z,999.43
2016-06-03T07:38:11.223Z,999.4
2016-06-03T07:39:11.241Z,999.43
2016-06-03T07:40:11.276Z,999.44
2016-06-03T07:41:11.310Z,999.4
2016-06-03T07:42:11.327Z,999.4
2016-06-03T07:43:11.361Z,999.47
2016-06-03T07:44:11.395Z,999.41
2016-06-03T07:45:11.429Z,999.43
2016-06-03T07:46:11.448Z,999.4
2016-06-03T07:47:11.481Z,999.42
2016-06-03T07:48:11.515Z,999.41
2016-06-03T07:49:11.534Z,999.42
2016-06-03T07:50:11.567Z,999.43
2016-06-03T07:51:11.586Z,999.42
2016-06-03T07:52:11.620Z,999.38
2016-06-03T07:53:11.638Z,999.35
2016-06-03T07:54:11.672Z,999.34
2016-06-03T07:55:12.144Z,999.33
2016-06-03T07:56:11.725Z,999.32
2016-06-03T07:57:11.758Z,999.31
2016-06-03T07:58:11.808Z,999.29
2016-06-03T07:59:11.826Z,999.3
2016-06-03T08:00:11.844Z,999.28
2016-06-03T08:01:11.878Z,999.29
2016-06-03T08:02:11.912Z,999.28
2016-06-03T08:03:11.931Z,999.24
2016-06-03T08:04:11.965Z,999.23
2016-06-03T08:05:11.999Z,999.25
2016-06-03T08:06:12.016Z,999.25
2016-06-03T08:07:12.051Z,999.27
2016-06-03T08:08:12.179Z,999.22
2016-06-03T08:09:12.181Z,999.26
2016-06-03T08:10:12.184Z,999.24
2016-06-03T08:11:12.187Z,999.27
2016-06-03T08:12:12.205Z,999.26
2016-06-03T08:13:12.348Z,999.24
2016-06-03T08:14:12.351Z,999.27
2016-06-03T08:15:12.385Z,999.23
2016-06-03T08:16:12.387Z,999.3
2016-06-03T08:17:12.390Z,999.26
2016-06-03T08:18:12.409Z,999.24
2016-06-03T08:19:12.411Z,999.22
2016-06-03T08:20:12.523Z,999.19
2016-06-03T08:21:12.464Z,999.21
2016-06-03T08:22:12.497Z,999.17
2016-06-03T08:23:12.516Z,999.14
2016-06-03T08:24:12.550Z,999.19
2016-06-03T08:25:12.584Z,999.19
2016-06-03T08:26:12.602Z,999.19
2016-06-03T08:27:12.636Z,999.15
2016-06-03T08:28:12.686Z,999.14
2016-06-03T08:29:12.703Z,999.16
2016-06-03T08:30:12.722Z,999.16
2016-06-03T08:31:12.756Z,999.15
2016-06-03T08:32:12.790Z,999.22
2016-06-03T08:33:12.808Z,999.17
2016-06-03T08:34:12.841Z,999.17
2016-06-03T08:35:12.877Z,999.15
2016-06-03T08:36:12.910Z,999.22
2016-06-03T08:37:12.944Z,999.17
2016-06-03T08:38:12.963Z,999.16
2016-06-03T08:39:12.996Z,999.18
2016-06-03T08:40:13.030Z,999.14
2016-06-03T08:41:13.048Z,999.13
2016-06-03T08:42:13.082Z,999.14
2016-06-03T08:43:13.116Z,999.17
2016-06-03T08:44:13.150Z,999.17
2016-06-03T08:45:13.185Z,999.11
2016-06-03T08:46:13.203Z,999.13
2016-06-03T08:47:13.236Z,999.15
2016-06-03T08:48:13.271Z,999.12
2016-06-03T08:49:13.304Z,999.11
2016-06-03T08:50:13.323Z,999.12
2016-06-03T08:51:13.357Z,999.12
2016-06-03T08:52:13.406Z,999.13
2016-06-03T08:53:13.424Z,999.16
2016-06-03T08:54:13.443Z,999.15
2016-06-03T08:55:13.477Z,999.13
2016-06-03T08:56:13.511Z,999.1
2016-06-03T08:57:13.545Z,999.15
2016-06-03T08:58:13.578Z,999.19
2016-06-03T08:59:13.597Z,999.18
2016-06-03T09:00:13.631Z,999.13
2016-06-03T09:01:13.664Z,999.14
2016-06-03T09:02:13.699Z,999.15
2016-06-03T09:03:13.733Z,999.16
2016-06-03T09:04:13.767Z,999.15
2016-06-03T09:05:13.786Z,999.12
2016-06-03T09:06:13.819Z,999.16
2016-06-03T09:07:13.852Z,999.1
2016-06-03T09:08:13.871Z,999.1
2016-06-03T09:09:13.905Z,999.1
2016-06-03T09:10:13.939Z,999.12
2016-06-03T09:11:13.973Z,999.09
2016-06-03T09:12:13.991Z,999.08
2016-06-03T09:13:14.135Z,999.08
2016-06-03T09:14:14.169Z,999.07
2016-06-03T09:15:14.187Z,999.08
2016-06-03T09:16:14.190Z,999.13
2016-06-03T09:17:14.193Z,999.1
2016-06-03T09:18:14.196Z,999.16
2016-06-03T09:19:14.260Z,999.12
2016-06-03T09:20:14.279Z,999.15
2016-06-03T09:21:14.281Z,999.12
2016-06-03T09:22:14.409Z,999.12
2016-06-03T09:23:14.412Z,999.16
2016-06-03T09:24:14.462Z,999.1
2016-06-03T09:25:15.292Z,999.12
2016-06-03T09:26:14.466Z,999.13
2016-06-03T09:27:14.470Z,999.12
2016-06-03T09:28:14.487Z,999.1
2016-06-03T09:29:14.521Z,999.07
2016-06-03T09:30:14.556Z,999.08
2016-06-03T09:31:14.605Z,999.04
2016-06-03T09:32:14.622Z,999.07
2016-06-03T09:33:14.657Z,999.06
2016-06-03T09:34:14.676Z,999.02
2016-06-03T09:35:14.710Z,999.01
2016-06-03T09:36:14.744Z,999.09
2016-06-03T09:37:14.777Z,999.05
2016-06-03T09:38:14.811Z,999.02
2016-06-03T09:39:14.830Z,999.06
2016-06-03T09:40:14.863Z,999.04
2016-06-03T09:41:14.897Z,999.06
2016-06-03T09:42:14.932Z,999.07
2016-06-03T09:43:14.966Z,999.01
2016-06-03T09:44:15.000Z,998.98
2016-06-03T09:45:15.018Z,999.03
2016-06-03T09:46:15.067Z,999.03
2016-06-03T09:47:15.086Z,999.01
2016-06-03T09:48:15.119Z,999.05
2016-06-03T09:49:15.154Z,999.02
2016-06-03T09:50:15.171Z,999.01
2016-06-03T09:51:15.206Z,999.08
2016-06-03T09:52:15.240Z,999.06
2016-06-03T09:53:15.273Z,999.08
2016-06-03T09:54:15.307Z,999.11
2016-06-03T09:55:15.342Z,999.1
2016-06-03T09:56:15.375Z,999.1
2016-06-03T09:57:15.394Z,999.12
2016-06-03T09:58:15.442Z,999.07
2016-06-03T09:59:15.461Z,999.11
2016-06-03T10:00:15.496Z,999.1
2016-06-03T10:01:15.530Z,999.05
2016-06-03T10:02:15.564Z,999.08
2016-06-03T10:03:15.597Z,999.05
2016-06-03T10:04:15.616Z,999.11
2016-06-03T10:05:15.649Z,999.06
2016-06-03T10:06:15.684Z,999.08
2016-06-03T10:07:15.717Z,999.02
2016-06-03T10:08:15.751Z,999.05
2016-06-03T10:09:15.786Z,999.02
2016-06-03T10:10:16.022Z,998.99
2016-06-03T10:11:15.838Z,999
2016-06-03T10:12:15.888Z,998.99
2016-06-03T10:13:15.905Z,999.02
2016-06-03T10:14:15.940Z,999
2016-06-03T10:15:15.973Z,999.03
2016-06-03T10:16:16.007Z,998.99
2016-06-03T10:17:16.041Z,998.94
2016-06-03T10:18:16.060Z,998.95
2016-06-03T10:19:16.093Z,998.96
2016-06-03T10:20:16.127Z,998.96
2016-06-03T10:21:16.162Z,998.98
2016-06-03T10:22:16.195Z,999
2016-06-03T10:23:16.229Z,999
2016-06-03T10:24:16.262Z,998.98
2016-06-03T10:25:16.297Z,999
2016-06-03T10:26:16.332Z,999.01
2016-06-03T10:27:16.350Z,999.01
2016-06-03T10:28:16.384Z,999.02
2016-06-03T10:29:16.417Z,999.1
2016-06-03T10:30:16.451Z,998.99
2016-06-03T10:31:16.486Z,999
2016-06-03T10:32:16.519Z,999
2016-06-03T10:33:16.553Z,999.06
2016-06-03T10:34:16.586Z,999.06
2016-06-03T10:35:16.621Z,999.07
2016-06-03T10:36:16.639Z,999.04
2016-06-03T10:37:16.672Z,999.03
2016-06-03T10:38:16.708Z,999.03
2016-06-03T10:39:16.741Z,999.02
2016-06-03T10:40:17.760Z,998.94
2016-06-03T10:41:16.808Z,998.92
2016-06-03T10:42:16.843Z,998.94
2016-06-03T10:43:16.877Z,998.94
2016-06-03T10:44:16.895Z,998.94
2016-06-03T10:45:16.929Z,998.93
2016-06-03T10:46:16.963Z,998.86
2016-06-03T10:47:16.997Z,998.95
2016-06-03T10:48:17.031Z,998.93
2016-06-03T10:49:17.065Z,998.93
2016-06-03T10:50:17.099Z,998.94
2016-06-03T10:51:17.133Z,998.93
2016-06-03T10:52:17.167Z,998.95
2016-06-03T10:53:17.200Z,998.9
2016-06-03T10:54:17.235Z,998.98
2016-06-03T10:55:17.862Z,998.92
2016-06-03T10:56:17.553Z,998.92
2016-06-03T10:57:17.321Z,998.95
2016-06-03T10:58:17.354Z,998.93
2016-06-03T10:59:17.389Z,998.93
2016-06-03T11:00:17.422Z,998.9
2016-06-03T11:01:17.456Z,998.88
2016-06-03T11:02:17.490Z,998.95
2016-06-03T11:03:17.525Z,998.98
2016-06-03T11:04:17.574Z,998.95
2016-06-03T11:05:17.592Z,998.94
2016-06-03T11:06:17.625Z,998.95
2016-06-03T11:07:17.660Z,998.91
2016-06-03T11:08:17.694Z,998.92
2016-06-03T11:09:17.728Z,998.95
2016-06-03T11:10:17.746Z,998.91
2016-06-03T11:11:17.780Z,998.9
2016-06-03T11:12:17.814Z,998.93
2016-06-03T11:13:17.848Z,998.93
2016-06-03T11:14:17.882Z,998.91
2016-06-03T11:15:17.915Z,998.86
2016-06-03T11:16:17.949Z,998.89
2016-06-03T11:17:17.984Z,998.93
2016-06-03T11:18:18.018Z,998.88
2016-06-03T11:19:18.052Z,998.89
2016-06-03T11:20:18.085Z,998.85
2016-06-03T11:21:18.135Z,998.89
2016-06-03T11:22:18.154Z,998.87
2016-06-03T11:23:18.187Z,998.86
2016-06-03T11:24:18.221Z,998.87
2016-06-03T11:25:18.255Z,998.88
2016-06-03T11:26:18.290Z,998.89
2016-06-03T11:27:18.308Z,998.87
2016-06-03T11:28:18.342Z,998.85
2016-06-03T11:29:18.376Z,998.87
2016-06-03T11:30:18.409Z,998.9
2016-06-03T11:31:18.443Z,998.88
2016-06-03T11:32:18.477Z,998.88
2016-06-03T11:33:18.511Z,998.9
2016-06-03T11:34:18.545Z,998.86
2016-06-03T11:35:18.579Z,998.89
2016-06-03T11:36:18.614Z,998.87
2016-06-03T11:37:18.647Z,998.91
2016-06-03T11:38:18.681Z,998.96
2016-06-03T11:39:18.715Z,998.93
2016-06-03T11:40:18.749Z,998.93
2016-06-03T11:41:18.783Z,998.93
2016-06-03T11:42:18.817Z,998.92
2016-06-03T11:43:18.850Z,998.95
2016-06-03T11:44:18.885Z,998.88
2016-06-03T11:45:18.918Z,998.9
2016-06-03T11:46:18.952Z,998.89
2016-06-03T11:47:18.986Z,998.9
2016-06-03T11:48:19.021Z,998.92
2016-06-03T11:49:19.055Z,998.91
2016-06-03T11:50:19.088Z,998.95
2016-06-03T11:51:19.122Z,998.93
2016-06-03T11:52:19.156Z,998.92
2016-06-03T11:53:19.190Z,998.91
2016-06-03T11:54:19.223Z,998.91
2016-06-03T11:55:19.257Z,998.9
2016-06-03T11:56:19.292Z,998.88
2016-06-03T11:57:19.326Z,998.9
2016-06-03T11:58:19.360Z,998.9
2016-06-03T11:59:19.393Z,998.87
2016-06-03T12:00:19.428Z,998.91
2016-06-03T12:01:19.462Z,998.9
2016-06-03T12:02:19.495Z,998.9
2016-06-03T12:03:19.529Z,998.9
2016-06-03T12:04:19.578Z,998.87
2016-06-03T12:05:19.598Z,998.83
2016-06-03T12:06:19.631Z,998.82
2016-06-03T12:07:19.664Z,998.84
2016-06-03T12:08:19.699Z,998.81
2016-06-03T12:09:19.733Z,998.84
2016-06-03T12:10:19.766Z,998.82
2016-06-03T12:11:19.989Z,998.77
2016-06-03T12:12:19.850Z,998.8
2016-06-03T12:13:19.869Z,998.73
2016-06-03T12:14:19.903Z,998.75
2016-06-03T12:15:19.936Z,998.74
2016-06-03T12:16:19.971Z,998.74
2016-06-03T12:17:20.020Z,998.67
2016-06-03T12:18:20.055Z,998.72
2016-06-03T12:19:20.088Z,998.77
2016-06-03T12:20:20.122Z,998.73
2016-06-03T12:21:20.156Z,998.77
2016-06-03T12:22:20.190Z,998.75
2016-06-03T12:23:20.224Z,998.78
2016-06-03T12:24:20.258Z,998.79
2016-06-03T12:25:20.292Z,998.8
2016-06-03T12:26:20.591Z,998.85
2016-06-03T12:27:20.359Z,998.83
2016-06-03T12:28:20.393Z,998.78
2016-06-03T12:29:20.428Z,998.78
2016-06-03T12:30:20.462Z,998.8
2016-06-03T12:31:20.511Z,998.79
2016-06-03T12:32:20.529Z,998.79
2016-06-03T12:33:20.564Z,998.79